Time;durP1;ratioP1;P1;durP2;ratioP2;P2;SDS_P1;SDS_P2;PMS_P1;PMS_P2;Temp;Humidity;BMP_temperature;BMP_pressure;BME280_temperature;BME280_humidity;BME280_pressure;Samples;Min_cycle;Max_cycle;Signal;HPM_P1;HPM_P2
2022/11/07 00:01:11;;;;;;;8.35;5.43;;;10.00;99.90;;;;;;5079659;28;20056;-39
2022/11/07 00:03:37;;;;;;;12.55;6.95;;;10.00;99.90;;;;;;5079518;28;20048;-35
2022/11/07 00:06:03;;;;;;;11.30;7.78;;;10.00;99.90;;;;;;5079582;28;20052;-41
2022/11/07 00:08:32;;;;;;;13.57;7.55;;;10.00;99.90;;;;;;5076051;28;20080;-36
2022/11/07 00:10:58;;;;;;;13.05;7.35;;;10.00;99.90;;;;;;5076290;28;20047;-40
2022/11/07 00:13:26;;;;;;;9.23;6.03;;;10.00;99.90;;;;;;5076320;28;20494;-35
2022/11/07 00:16:02;;;;;;;12.30;7.00;;;10.00;99.90;;;;;;5059517;28;20087;-38
2022/11/07 00:18:28;;;;;;;12.63;6.75;;;10.00;99.90;;;;;;5059292;28;20130;-41
2022/11/07 00:20:54;;;;;;;10.43;6.40;;;10.00;99.90;;;;;;5076219;28;20506;-39
2022/11/07 00:23:19;;;;;;;9.07;5.18;;;10.00;99.90;;;;;;5076241;28;20083;-38
2022/11/07 00:25:45;;;;;;;10.95;6.22;;;10.00;99.90;;;;;;5075502;28;20458;-41
2022/11/07 00:28:11;;;;;;;12.35;5.68;;;10.00;99.90;;;;;;5076113;28;20123;-39
2022/11/07 00:30:36;;;;;;;11.98;5.72;;;10.00;99.90;;;;;;5074988;28;20132;-40
2022/11/07 00:33:02;;;;;;;8.80;5.35;;;10.00;99.90;;;;;;5076041;28;20045;-34
2022/11/07 00:35:28;;;;;;;10.73;6.82;;;10.10;99.90;;;;;;5075016;28;20036;-39
2022/11/07 00:37:55;;;;;;;10.95;5.97;;;10.00;99.90;;;;;;5058567;28;20508;-38
2022/11/07 00:40:21;;;;;;;12.98;6.30;;;10.10;99.90;;;;;;5076725;28;20119;-36
2022/11/07 00:42:46;;;;;;;14.88;8.32;;;10.10;99.90;;;;;;5075782;28;20574;-41
2022/11/07 00:45:12;;;;;;;11.98;6.47;;;10.10;99.90;;;;;;5075976;28;20093;-39
2022/11/07 00:47:38;;;;;;;12.35;6.70;;;10.10;99.90;;;;;;5074764;28;20458;-41
2022/11/07 00:50:05;;;;;;;11.60;7.22;;;10.10;99.90;;;;;;5075589;28;20101;-42
2022/11/07 00:52:31;;;;;;;14.60;7.15;;;10.10;99.90;;;;;;5076452;28;20044;-40
2022/11/07 00:54:57;;;;;;;11.98;6.28;;;10.10;99.90;;;;;;5058748;28;20459;-41
2022/11/07 00:57:22;;;;;;;8.98;6.32;;;10.20;99.90;;;;;;5075281;28;20067;-42
2022/11/07 00:59:48;;;;;;;10.93;6.30;;;10.20;99.90;;;;;;5075027;28;20498;-42
2022/11/07 01:02:14;;;;;;;14.73;6.90;;;10.20;99.90;;;;;;5074252;28;20058;-42
2022/11/07 01:07:23;;;;;;;14.32;6.78;;;10.20;99.90;;;;;;5076109;28;20053;-42
2022/11/07 01:09:49;;;;;;;15.70;7.43;;;10.30;99.90;;;;;;5073997;28;20040;-42
2022/11/07 01:12:15;;;;;;;10.40;5.07;;;10.50;99.90;;;;;;5075172;28;20106;-33
2022/11/07 01:14:41;;;;;;;14.55;8.48;;;10.20;99.90;;;;;;5075704;28;20127;-37
2022/11/07 01:17:07;;;;;;;15.65;8.18;;;10.10;99.90;;;;;;5057578;28;20049;-39
2022/11/07 01:19:32;;;;;;;14.05;7.80;;;10.00;99.90;;;;;;5074039;28;20040;-39
2022/11/07 01:21:58;;;;;;;14.70;7.05;;;10.00;99.90;;;;;;5075018;28;20051;-33
2022/11/07 01:24:26;;;;;;;15.23;7.65;;;10.10;99.90;;;;;;5074994;28;20410;-33
2022/11/07 01:26:52;;;;;;;13.73;6.45;;;10.10;99.90;;;;;;5075748;28;20101;-32
2022/11/07 01:29:19;;;;;;;18.63;8.30;;;10.20;99.90;;;;;;5073729;28;20131;-33
2022/11/07 01:31:47;;;;;;;11.75;6.32;;;10.20;99.90;;;;;;5074872;28;20163;-32
2022/11/07 01:34:13;;;;;;;17.33;7.63;;;10.10;99.90;;;;;;5075051;28;20403;-33
2022/11/07 01:36:39;;;;;;;18.80;7.60;;;10.20;99.90;;;;;;5073818;28;20113;-33
2022/11/07 01:39:05;;;;;;;13.75;6.38;;;10.00;99.90;;;;;;5074056;28;20127;-32
2022/11/07 01:41:34;;;;;;;13.48;7.03;;;10.10;99.90;;;;;;5073733;28;20040;-33
2022/11/07 01:44:06;;;;;;;17.90;5.65;;;10.20;99.90;;;;;;5074575;28;20045;-32
2022/11/07 01:46:39;;;;;;;10.43;5.57;;;10.20;99.90;;;;;;5073331;28;20048;-32
2022/11/07 01:49:28;;;;;;;12.07;6.72;;;10.10;99.90;;;;;;5074426;28;20044;-31
2022/11/07 01:52:31;;;;;;;14.38;7.18;;;10.10;99.90;;;;;;5074409;28;20044;-32
2022/11/07 01:55:28;;;;;;;14.38;6.63;;;10.20;99.90;;;;;;5075268;28;20044;-33
2022/11/07 01:58:01;;;;;;;21.42;8.27;;;10.10;99.90;;;;;;5073338;28;20053;-32
2022/11/07 02:00:28;;;;;;;21.48;8.35;;;10.20;99.90;;;;;;5074795;28;20063;-31
2022/11/07 02:02:58;;;;;;;14.50;7.75;;;10.20;99.90;;;;;;5073062;28;20114;-33
2022/11/07 02:05:33;;;;;;;18.27;7.47;;;10.20;99.90;;;;;;5074190;28;20055;-32
2022/11/07 02:08:01;;;;;;;12.95;5.93;;;10.30;99.90;;;;;;5074125;28;20036;-32
2022/11/07 02:10:28;;;;;;;12.95;6.00;;;10.30;99.90;;;;;;5072906;28;20129;-33
2022/11/07 02:12:57;;;;;;;14.10;6.32;;;10.30;99.90;;;;;;5074085;28;20067;-33
2022/11/07 02:15:25;;;;;;;14.75;6.30;;;10.30;99.90;;;;;;5074592;28;20106;-33
2022/11/07 02:17:51;;;;;;;17.50;5.50;;;10.30;99.90;;;;;;5074046;28;20048;-33
2022/11/07 02:20:17;;;;;;;15.45;5.22;;;10.20;99.90;;;;;;5074004;28;20083;-33
2022/11/07 02:23:05;;;;;;;14.95;5.35;;;10.20;99.90;;;;;;5072779;28;20529;-33
2022/11/07 02:25:31;;;;;;;16.20;4.47;;;10.20;99.90;;;;;;5074524;28;20091;-34
2022/11/07 02:28:00;;;;;;;16.15;5.15;;;10.20;99.90;;;;;;5073556;28;20076;-32
2022/11/07 02:30:29;;;;;;;17.45;4.80;;;10.20;99.90;;;;;;5056408;28;20371;-34
2022/11/07 02:32:55;;;;;;;7.53;3.08;;;10.20;99.90;;;;;;5073631;28;20052;-32
2022/11/07 02:35:39;;;;;;;14.35;4.22;;;10.30;99.90;;;;;;5074079;28;20127;-34
2022/11/07 02:38:19;;;;;;;15.75;4.85;;;10.30;99.90;;;;;;5073743;28;20048;-33
2022/11/07 02:41:10;;;;;;;13.98;4.90;;;10.30;99.90;;;;;;5073829;28;20178;-33
2022/11/07 02:43:39;;;;;;;12.48;3.88;;;10.30;99.90;;;;;;5056297;28;20052;-34
2022/11/07 02:46:12;;;;;;;12.48;3.25;;;10.30;99.90;;;;;;5073654;28;20048;-33
2022/11/07 02:48:43;;;;;;;7.88;3.38;;;10.30;99.90;;;;;;5074241;28;20040;-32
2022/11/07 02:51:08;;;;;;;14.80;3.88;;;10.30;99.90;;;;;;5073555;28;20048;-32
2022/11/07 02:53:34;;;;;;;10.15;3.83;;;10.30;99.90;;;;;;5073596;28;20245;-32
2022/11/07 02:56:00;;;;;;;10.30;3.70;;;10.20;99.90;;;;;;5073587;28;20098;-33
2022/11/07 02:58:29;;;;;;;10.80;4.10;;;10.10;99.90;;;;;;5074012;28;20048;-33
2022/11/07 03:00:54;;;;;;;10.45;3.78;;;10.10;99.90;;;;;;5073280;28;20577;-33
2022/11/07 03:03:20;;;;;;;11.50;3.45;;;10.20;99.90;;;;;;5072049;28;20131;-33
2022/11/07 03:05:46;;;;;;;9.98;3.50;;;10.20;99.90;;;;;;5072242;28;20082;-33
2022/11/07 03:08:11;;;;;;;14.88;3.72;;;10.30;99.90;;;;;;5073910;28;20094;-33
2022/11/07 03:10:37;;;;;;;16.13;3.30;;;10.20;99.90;;;;;;5073367;28;20137;-33
2022/11/07 03:13:03;;;;;;;8.48;2.65;;;10.30;99.90;;;;;;5073976;28;20052;-34
2022/11/07 03:15:28;;;;;;;15.52;3.67;;;10.40;99.90;;;;;;5073417;28;20044;-33
2022/11/07 03:17:57;;;;;;;14.80;3.47;;;10.30;99.90;;;;;;5072253;28;20041;-33
2022/11/07 03:20:22;;;;;;;11.80;3.83;;;10.30;99.90;;;;;;5073370;28;20098;-34
2022/11/07 03:22:48;;;;;;;12.32;3.60;;;10.40;99.90;;;;;;5073287;28;20048;-32
2022/11/07 03:25:13;;;;;;;14.20;3.50;;;10.40;99.90;;;;;;5073286;28;20127;-32
2022/11/07 03:27:46;;;;;;;14.70;3.78;;;10.40;99.90;;;;;;5073261;28;20045;-32
2022/11/07 03:30:12;;;;;;;13.93;4.60;;;10.30;99.90;;;;;;5073243;28;20049;-33
2022/11/07 03:32:38;;;;;;;10.77;4.10;;;10.30;99.90;;;;;;5073264;28;20055;-34
2022/11/07 03:35:04;;;;;;;16.10;4.25;;;10.20;99.90;;;;;;5055297;28;20053;-35
2022/11/07 03:37:29;;;;;;;15.90;4.50;;;10.10;99.90;;;;;;5073751;28;20048;-36
2022/11/07 03:39:55;;;;;;;16.15;4.72;;;10.20;99.90;;;;;;5073187;28;20414;-38
2022/11/07 03:42:21;;;;;;;20.20;4.72;;;10.20;99.90;;;;;;5074176;28;20505;-38
2022/11/07 03:44:46;;;;;;;11.82;4.25;;;10.10;99.90;;;;;;5076887;28;20381;-36
2022/11/07 03:47:12;;;;;;;9.10;3.38;;;10.10;99.90;;;;;;5077114;28;20101;-33
2022/11/07 03:49:38;;;;;;;12.50;3.35;;;10.00;99.90;;;;;;5076684;28;20044;-34
2022/11/07 03:52:03;;;;;;;17.20;4.40;;;10.10;99.90;;;;;;5077024;28;20056;-33
2022/11/07 03:54:29;;;;;;;11.63;3.58;;;10.00;99.90;;;;;;5075541;28;20486;-34
2022/11/07 03:56:55;;;;;;;17.05;3.58;;;10.10;99.90;;;;;;5076898;28;20048;-33
2022/11/07 03:59:20;;;;;;;17.65;4.07;;;10.20;99.90;;;;;;5076305;28;20052;-35
2022/11/07 04:01:46;;;;;;;11.13;2.72;;;10.10;99.90;;;;;;5076851;28;20060;-32
2022/11/07 04:04:12;;;;;;;12.43;2.67;;;10.20;99.90;;;;;;5076322;28;20453;-35
2022/11/07 04:06:38;;;;;;;15.45;2.95;;;10.00;99.90;;;;;;5076769;28;20044;-33
2022/11/07 04:09:04;;;;;;;17.58;3.55;;;10.10;99.90;;;;;;5076664;28;20492;-33
2022/11/07 04:19:42;;;;;;;11.95;3.92;;;10.00;99.90;;;;;;5076317;28;20055;-32
2022/11/07 04:22:08;;;;;;;14.10;3.45;;;9.90;99.90;;;;;;5075094;28;20127;-32
2022/11/07 04:24:34;;;;;;;18.65;3.35;;;9.90;99.90;;;;;;5076189;28;20051;-32
2022/11/07 04:29:44;;;;;;;14.27;3.63;;;9.80;99.90;;;;;;5075125;28;20048;-33
2022/11/07 04:32:09;;;;;;;14.23;3.05;;;9.80;99.90;;;;;;5076056;28;20109;-33
2022/11/07 04:34:35;;;;;;;21.92;3.33;;;9.90;99.90;;;;;;5075062;28;20048;-32
2022/11/07 04:37:01;;;;;;;17.45;4.10;;;9.90;99.90;;;;;;5075053;28;20143;-32
2022/11/07 04:39:27;;;;;;;15.85;3.42;;;9.90;99.90;;;;;;5075946;28;20131;-32
2022/11/07 04:41:55;;;;;;;13.45;3.20;;;10.10;99.90;;;;;;5074715;28;20048;-34
2022/11/07 04:44:21;;;;;;;19.90;5.13;;;10.10;99.90;;;;;;5076389;28;20106;-35
2022/11/07 04:46:47;;;;;;;17.20;3.55;;;10.10;99.90;;;;;;5075791;28;20098;-36
2022/11/07 04:49:15;;;;;;;14.60;4.20;;;10.00;99.90;;;;;;5075763;28;20387;-38
2022/11/07 04:51:42;;;;;;;14.40;3.95;;;10.10;99.90;;;;;;5074737;28;20097;-38
2022/11/07 04:54:13;;;;;;;17.08;5.38;;;10.10;99.90;;;;;;5074926;28;20044;-34
2022/11/07 04:56:39;;;;;;;17.10;3.28;;;9.90;99.90;;;;;;5074635;28;20394;-35
2022/11/07 04:59:05;;;;;;;17.25;4.20;;;10.00;99.90;;;;;;5074847;28;20049;-35
2022/11/07 05:01:31;;;;;;;14.52;3.33;;;10.00;99.90;;;;;;5075190;28;20047;-34
2022/11/07 05:03:57;;;;;;;15.20;3.42;;;10.00;99.90;;;;;;5074259;28;20054;-35
2022/11/07 05:06:23;;;;;;;12.82;4.07;;;10.10;99.90;;;;;;5075413;28;20044;-36
2022/11/07 05:08:48;;;;;;;15.57;4.32;;;10.10;99.90;;;;;;5075237;28;20049;-35
2022/11/07 05:11:14;;;;;;;14.63;4.35;;;10.20;99.90;;;;;;5075237;28;20040;-38
2022/11/07 05:13:40;;;;;;;17.27;4.30;;;10.10;99.90;;;;;;5075252;28;20530;-35
2022/11/07 05:16:12;;;;;;;12.65;4.00;;;10.20;99.90;;;;;;5074805;28;20040;-33
2022/11/07 05:18:38;;;;;;;20.73;5.22;;;10.00;99.90;;;;;;5075440;28;20105;-34
2022/11/07 05:21:04;;;;;;;17.83;4.13;;;10.20;99.90;;;;;;5058299;28;20370;-33
2022/11/07 05:23:29;;;;;;;16.17;4.88;;;10.00;99.90;;;;;;5075047;28;20044;-33
2022/11/07 05:25:55;;;;;;;17.80;5.63;;;10.20;99.90;;;;;;5075032;28;20444;-33
2022/11/07 05:28:30;;;;;;;14.80;4.63;;;10.00;99.90;;;;;;5074948;28;20055;-34
2022/11/07 05:31:01;;;;;;;12.15;3.92;;;9.90;99.90;;;;;;5075642;28;20063;-33
2022/11/07 05:33:27;;;;;;;12.55;4.95;;;9.80;99.90;;;;;;5074833;28;20083;-32
2022/11/07 05:35:53;;;;;;;16.63;4.90;;;9.90;99.90;;;;;;5074476;28;20494;-33
2022/11/07 05:38:19;;;;;;;12.27;3.40;;;9.80;99.90;;;;;;5074727;28;20077;-32
2022/11/07 05:40:44;;;;;;;15.82;4.55;;;10.00;99.90;;;;;;5074687;28;20041;-33
2022/11/07 05:43:14;;;;;;;13.27;4.32;;;9.80;99.90;;;;;;5075243;28;20092;-33
2022/11/07 05:45:40;;;;;;;18.75;5.38;;;9.90;99.90;;;;;;5074606;28;20074;-33
2022/11/07 05:48:08;;;;;;;23.05;5.80;;;9.80;99.90;;;;;;5073599;28;20048;-33
2022/11/07 05:50:35;;;;;;;15.15;3.63;;;9.80;99.90;;;;;;5073177;28;20048;-31
2022/11/07 05:53:01;;;;;;;13.38;5.95;;;10.00;99.90;;;;;;5074313;28;20048;-33
2022/11/07 05:55:30;;;;;;;17.92;5.85;;;10.00;99.90;;;;;;5073222;28;20131;-35
2022/11/07 05:57:56;;;;;;;16.80;5.22;;;10.10;99.90;;;;;;5074322;28;20044;-38
2022/11/07 06:00:22;;;;;;;17.33;6.07;;;9.80;99.90;;;;;;5073684;28;20502;-34
2022/11/07 06:03:00;;;;;;;16.50;5.60;;;10.10;99.90;;;;;;5074576;28;20265;-35
2022/11/07 06:05:27;;;;;;;15.82;5.80;;;10.10;99.90;;;;;;5072836;28;20067;-33
2022/11/07 06:07:53;;;;;;;19.73;5.68;;;10.10;99.90;;;;;;5073903;28;20135;-33
2022/11/07 06:10:18;;;;;;;25.02;6.00;;;10.00;99.90;;;;;;5074109;28;20124;-33
2022/11/07 06:12:44;;;;;;;17.08;5.03;;;10.00;99.90;;;;;;5074697;28;20052;-35
2022/11/07 06:15:10;;;;;;;16.50;5.63;;;9.90;99.90;;;;;;5074080;28;20048;-33
2022/11/07 06:17:41;;;;;;;15.23;5.40;;;10.00;99.90;;;;;;5074030;28;20478;-33
2022/11/07 06:20:07;;;;;;;16.33;5.10;;;10.00;99.90;;;;;;5074049;28;20048;-32
2022/11/07 06:22:38;;;;;;;13.45;4.60;;;9.80;99.90;;;;;;5074013;28;20048;-32
2022/11/07 06:25:04;;;;;;;19.92;5.63;;;9.80;99.90;;;;;;5072854;28;20135;-31
2022/11/07 06:27:30;;;;;;;11.88;4.30;;;10.00;99.90;;;;;;5073875;28;20040;-33
2022/11/07 06:29:56;;;;;;;18.80;6.45;;;9.80;99.90;;;;;;5056162;28;20069;-33
2022/11/07 06:32:21;;;;;;;15.50;5.78;;;9.80;99.90;;;;;;5073816;28;20048;-32
2022/11/07 06:34:49;;;;;;;15.55;6.35;;;10.00;99.90;;;;;;5072306;28;20083;-33
2022/11/07 06:37:15;;;;;;;13.23;6.20;;;9.80;99.90;;;;;;5072466;28;20094;-32
2022/11/07 06:39:40;;;;;;;17.73;6.00;;;10.00;99.90;;;;;;5073722;28;20125;-32
2022/11/07 06:42:06;;;;;;;15.77;5.75;;;9.90;99.90;;;;;;5074555;28;20048;-33
2022/11/07 06:44:32;;;;;;;13.32;4.43;;;9.90;99.90;;;;;;5073991;28;20504;-32
2022/11/07 06:46:58;;;;;;;17.90;6.38;;;10.10;99.90;;;;;;5074255;28;20155;-32
2022/11/07 06:49:23;;;;;;;10.75;5.00;;;10.10;99.90;;;;;;5074497;28;20382;-33
2022/11/07 06:51:49;;;;;;;14.63;4.70;;;10.00;99.90;;;;;;5073534;28;20537;-33
2022/11/07 06:54:15;;;;;;;14.95;4.05;;;9.90;99.90;;;;;;5073572;28;20083;-33
2022/11/07 06:56:43;;;;;;;13.90;3.95;;;9.90;99.90;;;;;;5074111;28;20052;-32
2022/11/07 06:59:19;;;;;;;9.93;4.35;;;9.90;99.90;;;;;;5071913;28;20506;-34
2022/11/07 07:01:45;;;;;;;11.57;3.70;;;9.80;99.90;;;;;;5074261;28;20095;-33
2022/11/07 07:04:10;;;;;;;11.88;4.13;;;9.90;99.90;;;;;;5073521;28;20040;-34
2022/11/07 07:06:37;;;;;;;11.07;3.22;;;9.90;99.90;;;;;;5073814;28;20045;-32
2022/11/07 07:09:06;;;;;;;8.07;2.67;;;9.80;99.90;;;;;;5074265;28;20094;-34
2022/11/07 07:11:35;;;;;;;9.23;3.42;;;10.00;99.90;;;;;;5073096;28;20529;-34
2022/11/07 07:14:01;;;;;;;13.27;3.70;;;10.10;99.90;;;;;;5074265;28;20059;-33
2022/11/07 07:16:27;;;;;;;12.35;3.92;;;10.00;99.90;;;;;;5073426;28;20394;-33
2022/11/07 07:18:52;;;;;;;11.95;4.43;;;10.10;99.90;;;;;;5077068;28;20044;-34
2022/11/07 07:21:18;;;;;;;15.48;6.03;;;10.20;99.90;;;;;;5077667;28;20041;-38
2022/11/07 07:23:44;;;;;;;15.15;5.30;;;10.00;99.90;;;;;;5076381;28;20048;-33
2022/11/07 07:26:15;;;;;;;13.52;6.13;;;10.20;99.90;;;;;;5059684;28;20555;-33
2022/11/07 07:28:41;;;;;;;13.65;5.20;;;10.00;99.90;;;;;;5077882;28;20426;-38
2022/11/07 07:31:12;;;;;;;15.75;5.65;;;10.30;99.90;;;;;;5077125;28;20098;-38
2022/11/07 07:33:39;;;;;;;18.90;7.78;;;10.20;99.90;;;;;;5077473;28;20135;-36
2022/11/07 07:36:05;;;;;;;17.25;7.93;;;10.60;99.90;;;;;;5077336;28;20058;-37
2022/11/07 07:38:31;;;;;;;19.77;9.13;;;10.30;99.90;;;;;;5075490;28;20048;-34
2022/11/07 07:40:58;;;;;;;22.23;8.48;;;10.30;99.90;;;;;;5076976;28;20059;-35
2022/11/07 07:43:25;;;;;;;18.77;9.00;;;10.20;99.90;;;;;;5076911;28;20048;-40
2022/11/07 07:45:50;;;;;;;14.73;8.50;;;10.40;99.90;;;;;;5075722;28;20406;-39
2022/11/07 07:48:16;;;;;;;18.67;8.45;;;10.40;99.90;;;;;;5077146;28;20036;-38
2022/11/07 07:50:42;;;;;;;21.30;8.68;;;10.40;99.90;;;;;;5076705;28;20040;-38
2022/11/07 07:53:07;;;;;;;19.92;9.15;;;10.40;99.90;;;;;;5076138;28;20090;-41
2022/11/07 07:55:34;;;;;;;20.67;9.90;;;10.50;99.90;;;;;;5077451;28;20070;-34
2022/11/07 07:57:59;;;;;;;17.70;8.13;;;10.40;99.90;;;;;;5076526;28;20093;-35
2022/11/07 08:00:25;;;;;;;25.00;10.80;;;10.50;99.90;;;;;;5058267;28;20053;-38
2022/11/07 08:02:58;;;;;;;24.95;10.88;;;10.30;99.90;;;;;;5075168;28;20041;-39
2022/11/07 08:05:24;;;;;;;27.45;11.85;;;10.40;99.90;;;;;;5075864;28;20062;-32
2022/11/07 08:07:51;;;;;;;27.70;11.27;;;10.30;99.90;;;;;;5075459;28;20049;-39
2022/11/07 08:10:18;;;;;;;29.58;12.02;;;10.50;99.90;;;;;;5076229;28;20040;-38
2022/11/07 08:12:49;;;;;;;23.33;9.98;;;10.60;99.90;;;;;;5077237;28;20507;-34
2022/11/07 08:15:16;;;;;;;27.08;11.20;;;10.30;99.90;;;;;;5058516;28;20098;-37
2022/11/07 08:17:43;;;;;;;23.50;10.50;;;10.50;99.90;;;;;;5076375;28;20056;-34
2022/11/07 08:20:13;;;;;;;18.90;9.23;;;10.50;99.90;;;;;;5076294;28;20127;-39
2022/11/07 08:22:40;;;;;;;29.50;10.88;;;10.60;99.90;;;;;;5075356;28;20483;-38
2022/11/07 08:25:08;;;;;;;28.58;11.55;;;10.40;99.90;;;;;;5076214;28;20059;-38
2022/11/07 08:27:34;;;;;;;21.52;9.90;;;10.70;99.90;;;;;;5076127;28;20479;-41
2022/11/07 08:30:00;;;;;;;28.10;10.63;;;10.80;99.90;;;;;;5074717;28;20055;-40
2022/11/07 08:32:27;;;;;;;22.27;10.27;;;10.50;99.90;;;;;;5076537;28;20044;-39
2022/11/07 08:34:53;;;;;;;25.92;10.75;;;;;;;;;;5058126;28;20048;-41
2022/11/07 08:37:19;;;;;;;21.15;9.43;;;10.70;99.90;;;;;;5075973;28;20080;-34
2022/11/07 08:39:45;;;;;;;27.63;10.02;;;10.60;99.90;;;;;;5076772;28;20081;-33
2022/11/07 08:42:11;;;;;;;29.52;11.00;;;10.70;99.90;;;;;;5075882;28;20436;-33
2022/11/07 08:44:37;;;;;;;19.75;8.50;;;10.40;99.90;;;;;;5074667;28;20040;-32
2022/11/07 08:47:08;;;;;;;27.83;10.00;;;10.70;99.90;;;;;;5074814;28;20053;-32
2022/11/07 08:49:33;;;;;;;28.45;11.45;;;10.70;99.90;;;;;;5075515;28;20498;-32
2022/11/07 08:52:00;;;;;;;22.20;9.80;;;10.60;99.90;;;;;;5075628;28;20052;-32
2022/11/07 08:54:27;;;;;;;28.75;11.82;;;10.60;99.90;;;;;;5074975;28;20059;-33
2022/11/07 08:56:53;;;;;;;24.13;9.32;;;10.50;99.90;;;;;;5076354;28;20141;-33
2022/11/07 08:59:22;;;;;;;28.48;10.45;;;10.70;99.90;;;;;;5057834;28;20036;-34
2022/11/07 09:01:48;;;;;;;29.48;10.73;;;10.60;99.90;;;;;;5073803;28;20061;-34
2022/11/07 09:04:14;;;;;;;24.88;9.63;;;10.60;99.90;;;;;;5075709;28;20398;-33
2022/11/07 09:06:39;;;;;;;26.05;11.18;;;10.80;99.90;;;;;;5075406;28;20036;-33
2022/11/07 09:09:05;;;;;;;25.73;10.68;;;10.80;99.90;;;;;;5074337;28;20041;-33
2022/11/07 09:11:34;;;;;;;23.67;10.48;;;10.60;99.90;;;;;;5075801;28;20083;-33
2022/11/07 09:13:59;;;;;;;25.98;9.18;;;10.60;99.90;;;;;;5076098;28;20054;-33
2022/11/07 09:16:25;;;;;;;27.13;9.57;;;10.70;99.90;;;;;;5074087;28;20451;-33
2022/11/07 09:18:51;;;;;;;17.52;8.68;;;10.90;99.90;;;;;;5076011;28;20044;-32
2022/11/07 09:21:18;;;;;;;17.65;5.97;;;10.80;99.90;;;;;;5075093;28;20479;-31
2022/11/07 09:23:44;;;;;;;18.65;6.43;;;11.10;99.90;;;;;;5075111;28;20036;-31
2022/11/07 09:26:10;;;;;;;19.02;7.25;;;11.10;99.90;;;;;;5073805;28;20044;-34
2022/11/07 09:28:36;;;;;;;21.85;7.00;;;11.20;99.90;;;;;;5074913;28;20097;-33
2022/11/07 09:31:03;;;;;;;23.25;8.32;;;11.10;99.90;;;;;;5075404;28;20409;-32
2022/11/07 09:33:29;;;;;;;17.70;6.25;;;11.20;99.90;;;;;;5057503;28;20136;-32
2022/11/07 09:35:58;;;;;;;20.77;8.95;;;11.10;99.90;;;;;;5075353;28;20174;-32
2022/11/07 09:38:24;;;;;;;17.80;6.15;;;11.20;99.90;;;;;;5073793;28;20048;-31
2022/11/07 09:41:02;;;;;;;15.57;6.68;;;11.20;99.90;;;;;;5074758;28;20044;-31
2022/11/07 09:43:28;;;;;;;21.50;7.10;;;11.30;99.90;;;;;;5074691;28;20056;-32
2022/11/07 09:46:06;;;;;;;18.73;5.88;;;11.10;99.90;;;;;;5074594;28;20053;-32
2022/11/07 09:49:04;;;;;;;20.17;5.55;;;11.20;99.90;;;;;;5074527;28;20127;-31
2022/11/07 09:51:40;;;;;;;17.08;5.45;;;11.20;99.90;;;;;;5073509;28;20060;-32
2022/11/07 09:54:17;;;;;;;18.55;5.50;;;11.30;99.90;;;;;;5074980;28;20055;-32
2022/11/07 09:56:43;;;;;;;18.67;6.35;;;11.30;99.90;;;;;;5073669;28;20110;-33
2022/11/07 09:59:24;;;;;;;22.63;5.78;;;11.30;99.90;;;;;;5074386;28;20123;-33
2022/11/07 10:01:50;;;;;;;18.10;6.10;;;11.40;99.90;;;;;;5074732;28;20060;-33
2022/11/07 10:04:19;;;;;;;16.25;6.20;;;11.30;99.90;;;;;;5074244;28;20051;-31
2022/11/07 10:07:13;;;;;;;15.48;5.70;;;11.20;99.90;;;;;;5074255;28;20056;-32
2022/11/07 10:09:53;;;;;;;14.75;5.63;;;11.20;99.90;;;;;;5048539;28;20083;-32
2022/11/07 10:12:35;;;;;;;16.45;6.22;;;11.40;99.90;;;;;;5056834;28;20071;-33
2022/11/07 10:15:26;;;;;;;19.67;5.85;;;11.30;99.90;;;;;;5073466;28;20052;-32
2022/11/07 10:18:19;;;;;;;19.27;6.78;;;11.50;99.90;;;;;;5074847;28;20044;-33
2022/11/07 10:21:00;;;;;;;24.23;5.70;;;11.50;99.90;;;;;;5072954;28;20057;-33
2022/11/07 10:23:34;;;;;;;23.80;6.68;;;11.40;99.90;;;;;;5074063;28;20052;-33
2022/11/07 10:26:09;;;;;;;18.98;6.45;;;11.40;99.90;;;;;;5074017;28;20509;-33
2022/11/07 10:28:47;;;;;;;15.90;5.38;;;11.50;99.90;;;;;;5074212;28;20127;-33
2022/11/07 10:31:14;;;;;;;19.65;6.18;;;11.70;99.90;;;;;;5055945;28;20525;-33
2022/11/07 10:34:01;;;;;;;20.73;5.72;;;11.60;99.90;;;;;;5074424;28;20048;-34
2022/11/07 10:36:31;;;;;;;13.85;4.90;;;11.70;99.90;;;;;;5073811;28;20044;-35
2022/11/07 10:39:00;;;;;;;18.42;4.93;;;11.70;99.90;;;;;;5073621;28;20044;-34
2022/11/07 10:41:29;;;;;;;17.27;6.00;;;11.80;99.90;;;;;;5073709;28;20076;-35
2022/11/07 10:44:01;;;;;;;18.00;4.63;;;11.70;99.90;;;;;;5073587;28;20131;-34
2022/11/07 10:46:32;;;;;;;17.55;5.28;;;11.80;99.90;;;;;;5073894;28;20487;-34
2022/11/07 10:49:01;;;;;;;12.93;3.92;;;11.80;99.90;;;;;;5072477;28;20048;-34
2022/11/07 10:51:40;;;;;;;17.30;4.00;;;11.80;99.90;;;;;;5073333;28;20113;-34
2022/11/07 10:54:20;;;;;;;13.02;3.72;;;11.80;99.90;;;;;;5074212;28;20395;-36
2022/11/07 10:57:14;;;;;;;16.80;3.97;;;11.90;99.90;;;;;;5041884;28;20485;-34
2022/11/07 11:00:09;;;;;;;15.15;4.53;;;11.90;99.90;;;;;;5074021;28;20543;-35
2022/11/07 11:02:46;;;;;;;18.50;3.97;;;11.90;99.90;;;;;;5074400;28;20088;-33
2022/11/07 11:05:24;;;;;;;14.23;3.20;;;11.90;99.90;;;;;;5073554;28;20045;-34
2022/11/07 11:07:50;;;;;;;18.13;3.65;;;11.80;99.90;;;;;;5073464;28;20048;-33
2022/11/07 11:10:23;;;;;;;19.83;5.03;;;11.80;99.90;;;;;;5073413;28;20483;-32
2022/11/07 11:12:48;;;;;;;15.98;4.72;;;11.90;99.90;;;;;;5073534;28;20087;-34
2022/11/07 11:15:19;;;;;;;12.75;3.80;;;11.70;99.90;;;;;;5073937;28;20452;-33
2022/11/07 11:17:46;;;;;;;16.08;4.82;;;11.80;99.90;;;;;;5073459;28;20102;-34
2022/11/07 11:20:57;;;;;;;13.98;4.28;;;11.90;99.90;;;;;;5073279;28;20044;-34
2022/11/07 11:23:25;;;;;;;13.20;4.18;;;12.00;99.90;;;;;;5072658;28;20065;-33
2022/11/07 11:25:58;;;;;;;13.27;3.70;;;12.00;99.90;;;;;;5073311;28;20123;-34
2022/11/07 11:28:32;;;;;;;15.93;4.70;;;11.90;99.90;;;;;;5074141;28;20075;-36
2022/11/07 11:31:02;;;;;;;13.02;4.13;;;12.00;99.90;;;;;;5073237;28;20051;-37
2022/11/07 11:33:39;;;;;;;14.75;4.65;;;12.00;99.90;;;;;;5074065;28;20135;-38
2022/11/07 11:36:28;;;;;;;14.95;3.97;;;12.10;99.90;;;;;;5072289;28;20056;-37
2022/11/07 11:38:54;;;;;;;12.07;3.88;;;12.10;99.90;;;;;;5073800;28;20115;-38
2022/11/07 11:41:49;;;;;;;13.32;4.07;;;12.10;99.90;;;;;;5073228;28;20082;-37
2022/11/07 11:44:23;;;;;;;17.42;4.43;;;12.10;99.90;;;;;;5072627;28;20052;-39
2022/11/07 11:46:52;;;;;;;14.45;4.78;;;12.20;99.90;;;;;;5073233;28;20133;-40
2022/11/07 11:49:23;;;;;;;12.75;3.45;;;12.40;99.90;;;;;;5073054;28;20041;-40
2022/11/07 11:51:59;;;;;;;15.23;4.15;;;12.40;99.90;;;;;;5073081;28;20087;-37
2022/11/07 11:54:25;;;;;;;13.30;4.13;;;12.40;99.90;;;;;;5072652;28;20426;-36
2022/11/07 11:56:54;;;;;;;11.98;3.40;;;12.40;99.90;;;;;;5071990;28;20083;-38
2022/11/07 11:59:33;;;;;;;12.13;3.85;;;12.40;99.90;;;;;;5072286;28;20051;-38
2022/11/07 12:02:18;;;;;;;14.48;4.50;;;12.40;99.90;;;;;;5072648;28;20448;-41
2022/11/07 12:05:05;;;;;;;10.73;3.20;;;12.70;99.90;;;;;;5074955;28;20075;-40
2022/11/07 12:07:58;;;;;;;12.32;3.35;;;12.70;99.90;;;;;;5076797;28;20049;-41
2022/11/07 12:10:38;;;;;;;14.65;3.72;;;12.80;99.90;;;;;;5075424;28;20049;-42
2022/11/07 12:13:37;;;;;;;12.73;3.53;;;12.90;99.90;;;;;;5075813;28;20063;-42
2022/11/07 12:16:29;;;;;;;11.60;3.80;;;12.80;99.90;;;;;;5076129;28;20483;-40
2022/11/07 12:19:12;;;;;;;8.13;3.30;;;12.70;99.90;;;;;;5076419;28;20588;-40
2022/11/07 12:21:43;;;;;;;9.40;3.53;;;12.70;99.90;;;;;;5076946;28;20048;-42
2022/11/07 12:24:35;;;;;;;9.05;2.92;;;12.80;99.90;;;;;;5077164;28;20110;-39
2022/11/07 12:27:19;;;;;;;9.43;2.78;;;13.00;99.90;;;;;;5076258;28;20501;-41
2022/11/07 12:30:02;;;;;;;8.70;2.67;;;13.10;99.90;;;;;;5076165;28;20572;-42
2022/11/07 12:32:46;;;;;;;;;;;13.30;99.90;;;;;;5076846;28;20048;-42
2022/11/07 12:35:23;;;;;;;8.35;2.65;;;13.30;99.90;;;;;;5076898;28;20316;-43
2022/11/07 12:38:19;;;;;;;12.00;2.78;;;13.20;99.90;;;;;;5076629;28;20089;-43
2022/11/07 12:40:47;;;;;;;16.08;3.38;;;13.20;99.90;;;;;;5075993;28;20094;-42
2022/11/07 12:43:37;;;;;;;9.68;3.33;;;13.40;99.90;;;;;;5075881;28;20071;-43
2022/11/07 12:46:09;;;;;;;7.55;2.42;;;13.50;99.90;;;;;;5075929;28;20099;-43
2022/11/07 12:48:43;;;;;;;14.40;2.97;;;13.50;99.90;;;;;;5075111;28;20056;-43
2022/11/07 12:51:37;;;;;;;14.07;3.10;;;13.40;99.90;;;;;;5075664;28;20087;-42
2022/11/07 12:54:13;;;;;;;12.38;3.63;;;13.30;99.90;;;;;;5074593;28;20044;-43
2022/11/07 12:56:39;;;;;;;10.05;2.30;;;13.20;99.90;;;;;;5076254;28;20084;-43
2022/11/07 12:59:11;;;;;;;10.35;2.95;;;13.20;99.90;;;;;;5075576;28;20145;-43
2022/11/07 13:01:57;;;;;;;13.50;3.40;;;13.10;99.90;;;;;;5074375;28;20060;-43
2022/11/07 13:04:38;;;;;;;10.80;3.00;;;13.10;99.90;;;;;;5075241;28;20131;-43
2022/11/07 13:07:15;;;;;;;10.88;3.53;;;13.00;99.90;;;;;;5076026;28;20216;-43